West Salem, Wisconsin
Current Conditions -  °F | °C
As of 8:53 PM on Sunday 21 Dec 2014 (Local Time) from KLSE Reporting Station
Overcast Overcast  
Wind Chill: -1°   Ceiling: 1200
Heat Index:   Visibility: 8mi
Dew Point:   Wind: 18mph
Humidity: 86%   Direction: 170°S
Pressure: 29.83"   Gusts: 28mph
Location:  43.9°N, 91.08°W
Report Text: KLSE 220253Z AUTO 17016G24KT 8SM OVC012 04/02 A2983 RMK AO2 PK WND 17027/0231 SLP111 60001 T00390017 56005
Loading
Personal Weather Stations






























Interactive Weather Map New forecast layout! Learn more

10-Day Weather Forecast

Advertisements
Track Severe Weather on mobile